Time;durP1;ratioP1;P1;durP2;ratioP2;P2;SDS_P1;SDS_P2;PMS_P1;PMS_P2;Temp;Humidity;BMP_temperature;BMP_pressure;BME280_temperature;BME280_humidity;BME280_pressure;Samples;Min_cycle;Max_cycle;Signal;HPM_P1;HPM_P2
2021/12/14 00:01:19;;;;;;;10.43;7.30;;;8.80;88.20;;;;;;5006944;28;19941;-73
2021/12/14 00:03:53;;;;;;;10.55;7.70;;;8.80;88.30;;;;;;5024228;28;20039;-72
2021/12/14 00:06:21;;;;;;;11.30;7.60;;;8.80;88.20;;;;;;5012516;28;20272;-70
2021/12/14 00:08:54;;;;;;;10.02;7.05;;;8.80;88.30;;;;;;5016634;28;20337;-72
2021/12/14 00:11:35;;;;;;;10.45;6.47;;;8.80;88.20;;;;;;5011665;28;20036;-72
2021/12/14 00:16:37;;;;;;;10.90;6.90;;;8.70;88.50;;;;;;5014748;28;20102;-73
2021/12/14 00:19:04;;;;;;;9.73;6.93;;;8.70;88.50;;;;;;5009353;28;20038;-73
2021/12/14 00:21:31;;;;;;;10.80;7.43;;;8.70;88.60;;;;;;5015972;28;20038;-73
2021/12/14 00:24:09;;;;;;;11.85;7.85;;;8.70;88.50;;;;;;5016903;28;20050;-72
2021/12/14 00:26:44;;;;;;;10.95;7.63;;;8.70;88.50;;;;;;4992374;28;20039;-74
2021/12/14 00:29:20;;;;;;;10.93;7.22;;;8.70;88.50;;;;;;5012662;28;20042;-73
2021/12/14 00:31:47;;;;;;;11.05;7.60;;;8.70;88.40;;;;;;4991052;28;20030;-73
2021/12/14 00:34:21;;;;;;;10.80;7.50;;;8.70;88.40;;;;;;5000888;28;20149;-73
2021/12/14 00:36:48;;;;;;;10.40;7.60;;;8.70;88.40;;;;;;4999950;28;20038;-71
2021/12/14 00:39:14;;;;;;;11.68;7.53;;;8.70;88.40;;;;;;4995706;28;20039;-72
2021/12/14 00:41:40;;;;;;;11.13;7.10;;;8.70;88.40;;;;;;4990580;28;20039;-72
2021/12/14 00:44:08;;;;;;;16.70;9.55;;;8.70;88.40;;;;;;4999652;28;20054;-72
2021/12/14 00:46:35;;;;;;;12.00;7.88;;;8.70;88.40;;;;;;4999399;28;20034;-74
2021/12/14 00:49:06;;;;;;;10.63;7.38;;;8.70;88.50;;;;;;5000480;28;20031;-73
2021/12/14 00:51:33;;;;;;;10.75;7.68;;;8.70;88.50;;;;;;5030090;28;20039;-74
2021/12/14 00:54:02;;;;;;;13.13;8.27;;;8.70;88.50;;;;;;4992696;28;20069;-74
2021/12/14 00:56:28;;;;;;;11.20;7.60;;;8.70;88.60;;;;;;5015373;28;20034;-72
2021/12/14 00:58:54;;;;;;;11.55;7.65;;;8.70;88.40;;;;;;5024196;28;20252;-73
2021/12/14 01:01:29;;;;;;;12.35;7.82;;;8.60;88.50;;;;;;5013464;28;20088;-73
2021/12/14 01:03:58;;;;;;;11.63;8.23;;;8.70;88.60;;;;;;5011389;28;20050;-72
2021/12/14 01:06:30;;;;;;;11.57;7.53;;;8.70;88.50;;;;;;5019684;28;20038;-72
2021/12/14 01:08:57;;;;;;;10.23;7.38;;;8.70;88.40;;;;;;5019042;28;20022;-72
2021/12/14 01:11:36;;;;;;;11.77;7.80;;;8.60;88.50;;;;;;5031523;28;20047;-73
2021/12/14 01:14:31;;;;;;;11.55;7.82;;;8.70;88.50;;;;;;5014069;28;20058;-74
2021/12/14 01:17:55;;;;;;;13.35;9.15;;;8.70;88.40;;;;;;5009081;28;20223;-74
2021/12/14 01:19:59;;;;;;;10.80;7.47;;;8.60;88.40;;;;;;5016707;28;20100;-72
2021/12/14 01:22:40;;;;;;;11.25;7.70;;;8.70;88.40;;;;;;5012398;28;20096;-73
2021/12/14 01:25:24;;;;;;;10.85;7.65;;;8.60;88.40;;;;;;5013808;28;20042;-73
2021/12/14 01:27:59;;;;;;;12.48;8.45;;;8.60;88.40;;;;;;5009008;28;20053;-73
2021/12/14 01:30:34;;;;;;;14.05;8.95;;;8.60;88.50;;;;;;5016171;28;20076;-72
2021/12/14 01:33:05;;;;;;;12.55;8.43;;;8.60;88.60;;;;;;5010039;28;20050;-72
2021/12/14 01:35:34;;;;;;;11.20;7.82;;;8.60;88.50;;;;;;5024366;28;20066;-73
2021/12/14 01:39:09;;;;;;;11.88;8.55;;;8.60;88.30;;;;;;5007374;28;20073;-72
2021/12/14 01:40:54;;;;;;;13.32;9.43;;;8.60;88.40;;;;;;5000014;28;20053;-73
2021/12/14 01:43:24;;;;;;;13.07;8.02;;;8.60;88.40;;;;;;5009818;28;20026;-75
2021/12/14 01:45:51;;;;;;;12.40;8.95;;;8.60;88.40;;;;;;5006954;28;20038;-73
2021/12/14 01:48:17;;;;;;;14.27;8.90;;;8.60;88.30;;;;;;5012509;28;20026;-72
2021/12/14 01:50:51;;;;;;;12.68;8.45;;;8.60;88.50;;;;;;5017214;28;20030;-73
2021/12/14 01:53:20;;;;;;;12.38;8.50;;;8.60;88.50;;;;;;5015602;28;20124;-72
2021/12/14 01:55:51;;;;;;;12.95;9.38;;;8.60;88.50;;;;;;5011682;28;20099;-73
2021/12/14 01:58:18;;;;;;;13.65;10.02;;;8.60;88.60;;;;;;5007854;28;20035;-73
2021/12/14 02:00:54;;;;;;;12.77;9.18;;;8.60;88.50;;;;;;5013701;28;20026;-73
2021/12/14 02:03:27;;;;;;;13.38;9.25;;;8.60;88.60;;;;;;5013975;28;20117;-73
2021/12/14 02:05:52;;;;;;;15.02;9.30;;;8.60;88.70;;;;;;5024008;28;20038;-73
2021/12/14 02:08:18;;;;;;;13.38;9.15;;;8.60;88.70;;;;;;5011605;28;20031;-72
2021/12/14 02:10:44;;;;;;;14.88;10.25;;;8.60;88.70;;;;;;5016542;28;20035;-73
2021/12/14 02:13:09;;;;;;;12.88;9.27;;;8.50;88.90;;;;;;5010066;28;20058;-71
2021/12/14 02:15:39;;;;;;;16.02;10.65;;;8.50;89.00;;;;;;5034312;28;20054;-72
2021/12/14 02:18:14;;;;;;;14.18;9.77;;;8.50;89.00;;;;;;5021361;28;20094;-72
2021/12/14 02:20:47;;;;;;;15.75;10.32;;;8.50;89.10;;;;;;5016781;28;20040;-72
2021/12/14 02:23:13;;;;;;;14.75;10.80;;;8.50;89.10;;;;;;5011487;28;20037;-74
2021/12/14 02:25:39;;;;;;;16.38;11.70;;;8.60;89.20;;;;;;5015868;28;20504;-73
2021/12/14 02:28:08;;;;;;;17.15;11.98;;;8.50;89.10;;;;;;5014986;28;20034;-73
2021/12/14 02:30:37;;;;;;;17.05;12.30;;;8.50;89.20;;;;;;5015351;28;20034;-72
2021/12/14 02:33:18;;;;;;;20.10;13.63;;;8.50;89.30;;;;;;5021349;28;20040;-74
2021/12/14 02:35:46;;;;;;;18.67;12.15;;;8.50;89.30;;;;;;5010597;28;20056;-73
2021/12/14 02:38:13;;;;;;;18.42;13.07;;;8.50;89.30;;;;;;5010499;28;20504;-73
2021/12/14 02:40:57;;;;;;;18.77;13.63;;;8.60;89.20;;;;;;5014922;28;20030;-73
2021/12/14 02:43:38;;;;;;;20.27;13.60;;;8.60;89.10;;;;;;5008862;28;20101;-73
2021/12/14 02:46:09;;;;;;;19.48;13.85;;;8.50;89.30;;;;;;5007634;28;20022;-72
2021/12/14 02:48:36;;;;;;;19.58;14.43;;;8.50;89.30;;;;;;5007307;28;20034;-73
2021/12/14 02:51:06;;;;;;;21.83;15.32;;;8.50;89.40;;;;;;5008205;28;20046;-73
2021/12/14 02:53:32;;;;;;;20.15;14.25;;;8.50;89.30;;;;;;5014836;28;20038;-73
2021/12/14 02:55:58;;;;;;;23.63;15.70;;;8.50;89.40;;;;;;5008685;28;20054;-73
2021/12/14 02:58:23;;;;;;;21.25;14.85;;;8.50;89.40;;;;;;5015247;28;20026;-73
2021/12/14 03:00:53;;;;;;;20.95;15.13;;;8.50;89.50;;;;;;5018497;28;20054;-73
2021/12/14 03:03:19;;;;;;;23.27;15.23;;;8.50;89.50;;;;;;5020542;28;20044;-72
2021/12/14 03:05:48;;;;;;;22.80;15.20;;;8.40;89.70;;;;;;5013369;28;20057;-73
2021/12/14 03:08:18;;;;;;;24.13;16.40;;;8.40;89.60;;;;;;5025244;28;20038;-73
2021/12/14 03:10:58;;;;;;;24.05;16.92;;;8.40;89.50;;;;;;5013016;28;20042;-73
2021/12/14 03:13:30;;;;;;;24.33;16.50;;;8.40;89.60;;;;;;5026284;28;20102;-72
2021/12/14 03:15:59;;;;;;;26.13;18.27;;;8.40;89.70;;;;;;5028720;28;20043;-73
2021/12/14 03:18:30;;;;;;;26.85;17.35;;;8.40;89.70;;;;;;5008919;28;20045;-72
2021/12/14 03:21:10;;;;;;;25.63;17.15;;;8.40;89.70;;;;;;5009156;28;20034;-72
2021/12/14 03:23:43;;;;;;;25.50;17.20;;;8.40;89.60;;;;;;5022474;28;20037;-72
2021/12/14 03:26:11;;;;;;;26.70;18.40;;;8.40;89.60;;;;;;5008473;28;20030;-73
2021/12/14 03:28:38;;;;;;;26.70;18.23;;;8.30;89.70;;;;;;5018575;28;20034;-72
2021/12/14 03:31:10;;;;;;;26.88;18.45;;;8.30;89.80;;;;;;5014750;28;20045;-72
2021/12/14 03:33:40;;;;;;;29.98;19.15;;;8.30;89.90;;;;;;5011183;28;20034;-73
2021/12/14 03:36:10;;;;;;;31.25;19.83;;;8.30;89.70;;;;;;5031674;28;20029;-73
2021/12/14 03:38:43;;;;;;;29.55;19.10;;;8.30;89.60;;;;;;5023387;28;20050;-72
2021/12/14 03:41:19;;;;;;;26.95;18.95;;;8.30;89.80;;;;;;5009498;28;20034;-72
2021/12/14 03:43:58;;;;;;;33.20;21.02;;;8.30;89.80;;;;;;5008799;28;20336;-73
2021/12/14 03:46:29;;;;;;;30.55;19.77;;;8.20;89.80;;;;;;5012110;28;20038;-73
2021/12/14 03:48:55;;;;;;;31.20;20.60;;;8.20;90.00;;;;;;5011751;28;20034;-73
2021/12/14 03:51:23;;;;;;;32.03;20.40;;;8.20;90.00;;;;;;5007982;28;20042;-74
2021/12/14 03:53:54;;;;;;;34.17;22.13;;;8.30;90.10;;;;;;5012728;28;20054;-73
2021/12/14 03:56:20;;;;;;;33.53;22.77;;;8.20;90.00;;;;;;5010512;28;20038;-73
2021/12/14 03:58:47;;;;;;;32.67;21.58;;;8.20;90.00;;;;;;5035016;28;20102;-73
2021/12/14 04:01:25;;;;;;;35.22;24.02;;;8.20;90.00;;;;;;5017910;28;20030;-73
2021/12/14 04:03:57;;;;;;;33.90;22.02;;;8.20;90.10;;;;;;5009010;28;20037;-73
2021/12/14 04:06:23;;;;;;;36.45;22.48;;;8.20;90.10;;;;;;5014854;28;20026;-72
2021/12/14 04:08:49;;;;;;;36.83;23.15;;;8.20;90.10;;;;;;5023378;28;20120;-72
2021/12/14 04:11:15;;;;;;;35.58;23.95;;;8.20;90.10;;;;;;5028488;28;20102;-73
2021/12/14 04:13:45;;;;;;;35.42;22.63;;;8.30;90.10;;;;;;5027296;28;20066;-72
2021/12/14 04:16:15;;;;;;;41.65;24.70;;;8.20;90.10;;;;;;5012251;28;20049;-72
2021/12/14 04:18:41;;;;;;;39.45;25.20;;;8.20;90.20;;;;;;5012503;28;20064;-73
2021/12/14 04:21:07;;;;;;;39.08;25.75;;;8.20;90.30;;;;;;5012416;28;20086;-73
2021/12/14 04:23:40;;;;;;;40.45;25.00;;;8.20;90.30;;;;;;5018218;28;20034;-71
2021/12/14 04:26:08;;;;;;;39.20;25.33;;;8.20;90.40;;;;;;5015556;28;20054;-72
2021/12/14 04:28:40;;;;;;;40.55;25.00;;;8.20;90.30;;;;;;5016778;28;20041;-73
2021/12/14 04:31:06;;;;;;;40.72;25.52;;;8.20;90.40;;;;;;5017865;28;20030;-72
2021/12/14 04:33:35;;;;;;;43.35;26.48;;;8.20;90.50;;;;;;5011860;28;20122;-73
2021/12/14 04:36:06;;;;;;;41.22;25.90;;;8.20;90.50;;;;;;5009768;28;20106;-73
2021/12/14 04:38:37;;;;;;;39.50;24.88;;;8.20;90.50;;;;;;5011108;28;20038;-72
2021/12/14 04:52:29;;;;;;;41.75;26.40;;;8.20;90.50;;;;;;5010442;28;20045;-72
2021/12/14 04:55:02;;;;;;;42.30;26.45;;;8.20;90.50;;;;;;5008965;28;20329;-72
2021/12/14 04:57:44;;;;;;;42.70;26.17;;;8.30;90.50;;;;;;5016538;28;20067;-71
2021/12/14 05:00:33;;;;;;;41.35;26.30;;;8.30;90.50;;;;;;5016785;28;20050;-73
2021/12/14 05:03:00;;;;;;;40.50;25.30;;;8.30;90.50;;;;;;5004488;28;20074;-72
2021/12/14 05:05:32;;;;;;;43.03;27.63;;;8.30;90.50;;;;;;5015867;28;20467;-73
2021/12/14 05:10:41;;;;;;;43.47;26.75;;;8.30;90.50;;;;;;5011787;28;20034;-75
2021/12/14 05:13:07;;;;;;;44.67;28.52;;;8.30;90.50;;;;;;5009640;28;20046;-73
2021/12/14 05:15:39;;;;;;;46.80;28.70;;;8.30;90.50;;;;;;5009397;28;20050;-73
2021/12/14 05:18:10;;;;;;;47.20;27.58;;;8.20;90.50;;;;;;5000323;28;20053;-73
2021/12/14 05:20:39;;;;;;;46.75;28.52;;;8.20;90.50;;;;;;5025610;28;20034;-74
2021/12/14 05:23:05;;;;;;;45.17;28.25;;;8.20;90.60;;;;;;5007052;28;20082;-73
2021/12/14 05:25:31;;;;;;;46.05;28.02;;;8.20;90.60;;;;;;5009546;28;20101;-73
2021/12/14 05:28:00;;;;;;;42.75;26.90;;;8.30;90.60;;;;;;5007796;28;20034;-73
2021/12/14 05:30:40;;;;;;;45.28;28.08;;;8.20;90.60;;;;;;5009554;28;20099;-73
2021/12/14 05:33:16;;;;;;;46.22;28.48;;;8.20;90.50;;;;;;4997933;28;20107;-73
2021/12/14 05:35:45;;;;;;;46.35;28.83;;;8.20;90.50;;;;;;5007577;28;20081;-74
2021/12/14 05:38:14;;;;;;;45.20;28.80;;;8.20;90.50;;;;;;5010961;28;20039;-72
2021/12/14 05:41:09;;;;;;;43.70;27.98;;;8.30;90.70;;;;;;5003234;28;20030;-74
2021/12/14 05:43:30;;;;;;;46.67;28.73;;;8.20;90.50;;;;;;5004963;28;20043;-74
2021/12/14 05:46:02;;;;;;;45.28;29.23;;;8.20;90.60;;;;;;5010694;28;20050;-74
2021/12/14 05:48:32;;;;;;;47.38;28.38;;;8.20;90.60;;;;;;5005086;28;20057;-73
2021/12/14 05:51:04;;;;;;;50.42;29.25;;;8.20;90.60;;;;;;5025880;28;20090;-72
2021/12/14 05:53:34;;;;;;;48.20;29.48;;;8.20;90.60;;;;;;5010898;28;20316;-74
2021/12/14 05:56:05;;;;;;;49.38;31.60;;;8.20;90.60;;;;;;5005742;28;20042;-72
2021/12/14 05:58:32;;;;;;;47.80;29.65;;;8.20;90.70;;;;;;5005677;28;20035;-73
2021/12/14 06:01:01;;;;;;;48.38;29.67;;;8.20;90.70;;;;;;5011964;28;20030;-72
2021/12/14 06:03:36;;;;;;;50.17;30.80;;;8.20;90.80;;;;;;5012202;28;20038;-72
2021/12/14 06:06:02;;;;;;;;;;;8.20;90.70;;;;;;5016744;28;20061;-73
2021/12/14 06:08:34;;;;;;;48.35;28.95;;;8.20;90.80;;;;;;5026343;28;19983;-73
2021/12/14 06:11:00;;;;;;;53.58;30.70;;;8.20;90.90;;;;;;5022538;28;20041;-73
2021/12/14 06:13:36;;;;;;;51.58;30.42;;;8.20;90.80;;;;;;5010739;28;20042;-73
2021/12/14 06:16:02;;;;;;;51.85;31.13;;;8.20;90.90;;;;;;5014012;28;20133;-73
2021/12/14 06:18:27;;;;;;;52.17;31.67;;;8.20;90.90;;;;;;5008631;28;20046;-73
2021/12/14 06:20:53;;;;;;;53.50;31.35;;;8.20;90.70;;;;;;5009980;28;20034;-73
2021/12/14 06:23:31;;;;;;;51.15;31.80;;;8.20;90.80;;;;;;5020619;28;20090;-73
2021/12/14 06:25:57;;;;;;;54.72;32.60;;;8.20;90.80;;;;;;5003684;28;20046;-75
2021/12/14 06:28:28;;;;;;;52.30;32.92;;;8.20;90.80;;;;;;5016942;28;20351;-73
2021/12/14 06:30:55;;;;;;;54.50;32.75;;;8.20;90.90;;;;;;5006877;28;20094;-74
2021/12/14 06:33:21;;;;;;;56.50;32.42;;;8.10;90.80;;;;;;5026893;28;20066;-74
2021/12/14 06:35:53;;;;;;;56.88;33.10;;;8.20;90.90;;;;;;5005426;28;20041;-73
2021/12/14 06:38:29;;;;;;;53.58;31.40;;;8.20;90.90;;;;;;5007767;28;20038;-72
2021/12/14 06:41:17;;;;;;;54.42;32.45;;;8.20;91.00;;;;;;5009093;28;20093;-71
2021/12/14 06:43:54;;;;;;;54.38;30.77;;;8.20;90.90;;;;;;5018414;28;20034;-72
2021/12/14 06:46:25;;;;;;;54.67;33.53;;;8.20;91.00;;;;;;5009984;28;20037;-71
2021/12/14 06:48:59;;;;;;;59.15;32.63;;;8.20;90.90;;;;;;5015934;28;20061;-72
2021/12/14 06:51:36;;;;;;;60.10;34.10;;;8.20;91.00;;;;;;5012010;28;20061;-71
2021/12/14 06:54:07;;;;;;;66.18;36.78;;;8.20;91.00;;;;;;5007266;28;20034;-71
2021/12/14 06:56:36;;;;;;;57.65;34.28;;;8.20;91.00;;;;;;5011250;28;20022;-72
2021/12/14 06:59:10;;;;;;;56.42;33.17;;;8.20;91.10;;;;;;5015474;28;20014;-74
2021/12/14 07:01:44;;;;;;;58.17;33.60;;;8.20;91.00;;;;;;5008856;28;20134;-73
2021/12/14 07:04:19;;;;;;;60.08;35.65;;;8.20;91.10;;;;;;5016404;28;20038;-73
2021/12/14 07:06:51;;;;;;;55.85;35.58;;;8.20;91.00;;;;;;5017801;28;20030;-74
2021/12/14 07:09:24;;;;;;;60.92;35.13;;;8.20;91.00;;;;;;5003518;28;20018;-74
2021/12/14 07:12:20;;;;;;;59.95;34.30;;;8.20;91.00;;;;;;5009631;28;20030;-74
2021/12/14 07:14:50;;;;;;;60.17;35.38;;;8.20;90.90;;;;;;5000927;28;20039;-74
2021/12/14 07:17:25;;;;;;;60.53;34.50;;;8.20;91.00;;;;;;5004993;28;20031;-74
2021/12/14 07:19:56;;;;;;;59.63;34.08;;;8.20;91.00;;;;;;5008845;28;20026;-72
2021/12/14 07:22:31;;;;;;;55.30;34.13;;;8.30;90.90;;;;;;5009917;28;20034;-73
2021/12/14 07:25:07;;;;;;;59.70;33.65;;;8.20;90.90;;;;;;5006870;28;20051;-73
2021/12/14 07:27:57;;;;;;;58.55;35.03;;;8.20;90.90;;;;;;5012595;28;20044;-74
2021/12/14 07:30:32;;;;;;;56.30;32.60;;;8.20;90.90;;;;;;5010164;28;20396;-73
2021/12/14 07:33:12;;;;;;;60.25;35.22;;;8.30;91.00;;;;;;5010622;28;20034;-73
2021/12/14 07:36:02;;;;;;;60.70;35.00;;;8.20;91.00;;;;;;5021083;28;20046;-73
2021/12/14 07:38:45;;;;;;;59.70;34.90;;;8.20;90.90;;;;;;5014489;28;20054;-73
2021/12/14 07:41:25;;;;;;;60.60;33.95;;;8.30;90.90;;;;;;5002467;28;20042;-75
2021/12/14 07:44:15;;;;;;;59.78;35.88;;;8.30;91.00;;;;;;5012839;28;20030;-75
2021/12/14 07:46:47;;;;;;;61.08;36.75;;;8.30;91.00;;;;;;5016145;28;20038;-74
2021/12/14 07:49:27;;;;;;;62.80;36.05;;;8.30;90.90;;;;;;5007887;28;20094;-74
2021/12/14 07:52:10;;;;;;;59.30;36.85;;;8.20;90.80;;;;;;5007153;28;20030;-74
2021/12/14 07:54:59;;;;;;;56.55;33.72;;;8.20;91.00;;;;;;5008690;28;20045;-73
2021/12/14 07:57:30;;;;;;;53.53;32.80;;;8.30;91.10;;;;;;5009895;28;20038;-73
2021/12/14 08:00:18;;;;;;;57.90;35.50;;;8.30;91.10;;;;;;5008637;28;20026;-73
2021/12/14 08:02:50;;;;;;;60.47;36.13;;;8.30;91.00;;;;;;5010237;28;20042;-73
2021/12/14 08:05:25;;;;;;;55.92;33.45;;;8.40;91.00;;;;;;5011621;28;20022;-73
2021/12/14 08:08:14;;;;;;;55.40;33.20;;;8.30;91.00;;;;;;5012122;28;20033;-72
2021/12/14 08:10:48;;;;;;;56.55;33.42;;;8.30;91.10;;;;;;5008315;28;20033;-74
2021/12/14 08:13:23;;;;;;;55.53;34.05;;;8.30;91.00;;;;;;5011377;28;20643;-74
2021/12/14 08:15:55;;;;;;;54.88;33.08;;;8.40;91.00;;;;;;5017315;28;20034;-75
2021/12/14 08:18:40;;;;;;;54.85;35.78;;;8.40;90.90;;;;;;5013126;28;20057;-72
2021/12/14 08:21:17;;;;;;;57.55;34.22;;;8.50;90.80;;;;;;5011973;28;20026;-74
2021/12/14 08:23:53;;;;;;;55.55;33.80;;;8.50;90.80;;;;;;5010571;28;20065;-76
2021/12/14 08:26:45;;;;;;;57.15;33.72;;;8.50;90.70;;;;;;5006117;28;20057;-72
2021/12/14 08:29:16;;;;;;;50.85;32.30;;;8.60;90.60;;;;;;5011885;28;20302;-72
2021/12/14 08:31:56;;;;;;;53.38;32.60;;;8.60;90.60;;;;;;5020850;28;20062;-77
2021/12/14 08:34:29;;;;;;;53.42;32.88;;;8.60;90.60;;;;;;5010606;28;20038;-72
2021/12/14 08:37:12;;;;;;;52.95;34.45;;;8.60;90.50;;;;;;5010488;28;20042;-72
2021/12/14 08:39:46;;;;;;;52.35;32.15;;;8.70;90.30;;;;;;5019881;28;20074;-76
2021/12/14 08:42:18;;;;;;;53.28;33.38;;;8.70;90.40;;;;;;5019071;28;20098;-74
2021/12/14 08:44:57;;;;;;;54.38;31.58;;;8.70;90.30;;;;;;5014473;28;20027;-74
2021/12/14 08:47:39;;;;;;;54.72;33.20;;;8.70;90.20;;;;;;5010386;28;20042;-73
2021/12/14 08:50:11;;;;;;;53.97;33.38;;;8.70;90.10;;;;;;5011047;28;20093;-73
2021/12/14 08:52:40;;;;;;;51.33;32.53;;;8.80;90.10;;;;;;5014506;28;20111;-73
2021/12/14 08:55:10;;;;;;;50.15;31.10;;;8.90;89.90;;;;;;5017135;28;20058;-71
2021/12/14 08:57:37;;;;;;;50.25;31.95;;;8.90;89.80;;;;;;5012967;28;20508;-74
2021/12/14 09:00:34;;;;;;;48.95;33.03;;;8.90;89.70;;;;;;5012567;28;20496;-73
2021/12/14 09:03:05;;;;;;;48.40;30.58;;;8.90;89.70;;;;;;5008679;28;20065;-72
2021/12/14 09:05:41;;;;;;;49.83;32.13;;;9.00;89.70;;;;;;5019420;28;20041;-72
2021/12/14 09:08:10;;;;;;;48.97;31.23;;;9.00;89.60;;;;;;5021948;28;20424;-74
2021/12/14 09:10:40;;;;;;;49.83;32.92;;;9.00;89.60;;;;;;5014064;28;20042;-72
2021/12/14 09:13:11;;;;;;;48.78;30.80;;;9.10;89.60;;;;;;5011771;28;20018;-72
2021/12/14 09:15:39;;;;;;;50.08;30.90;;;9.10;89.50;;;;;;5014396;28;20057;-71
2021/12/14 09:18:05;;;;;;;51.28;32.42;;;9.10;89.40;;;;;;5013769;28;20040;-72
2021/12/14 09:20:35;;;;;;;46.60;30.33;;;9.10;89.20;;;;;;5014505;28;20026;-73
2021/12/14 09:23:10;;;;;;;52.15;30.52;;;9.20;89.30;;;;;;5023823;28;20034;-72
2021/12/14 09:25:37;;;;;;;47.72;30.85;;;9.10;89.20;;;;;;5012429;28;20046;-74
2021/12/14 09:28:03;;;;;;;45.42;30.25;;;9.20;89.20;;;;;;5020482;28;20044;-70
2021/12/14 09:30:34;;;;;;;43.65;29.83;;;9.20;89.20;;;;;;5021458;28;20034;-73
2021/12/14 09:33:00;;;;;;;49.67;31.73;;;9.20;89.00;;;;;;5012972;28;20053;-72
2021/12/14 09:35:30;;;;;;;44.85;29.10;;;9.30;89.00;;;;;;5010662;28;20053;-72
2021/12/14 09:37:59;;;;;;;43.50;29.48;;;9.30;89.10;;;;;;5011559;28;20041;-73
2021/12/14 09:40:54;;;;;;;42.17;29.00;;;9.30;89.10;;;;;;5009602;28;20050;-76
2021/12/14 09:43:23;;;;;;;46.92;30.70;;;9.40;89.10;;;;;;5014792;28;20082;-72
2021/12/14 09:45:56;;;;;;;43.50;29.88;;;9.40;88.90;;;;;;5013465;28;20114;-74
2021/12/14 09:48:30;;;;;;;45.92;29.98;;;9.40;88.90;;;;;;5017972;28;20266;-73
2021/12/14 09:51:05;;;;;;;47.00;29.88;;;9.40;89.00;;;;;;5015735;28;20018;-73
2021/12/14 09:53:31;;;;;;;47.08;31.00;;;9.50;88.80;;;;;;5005934;28;20027;-73
2021/12/14 09:55:58;;;;;;;50.25;32.55;;;9.50;88.80;;;;;;5006803;28;20027;-75
2021/12/14 09:58:47;;;;;;;47.90;31.02;;;9.40;88.70;;;;;;5021531;28;20046;-71
2021/12/14 10:01:32;;;;;;;53.78;32.72;;;9.50;88.90;;;;;;5010415;28;20034;-72
2021/12/14 10:04:03;;;;;;;;;;;9.50;88.70;;;;;;5017828;28;20082;-74
2021/12/14 10:06:33;;;;;;;43.67;29.15;;;9.60;88.70;;;;;;5005739;28;19910;-75
2021/12/14 10:09:10;;;;;;;42.45;29.55;;;9.60;88.70;;;;;;5005439;28;20054;-75
2021/12/14 10:12:07;;;;;;;46.13;31.90;;;9.60;88.70;;;;;;5003158;28;20054;-74
2021/12/14 10:14:40;;;;;;;51.20;29.65;;;9.60;88.60;;;;;;5008174;28;20053;-72
2021/12/14 10:17:11;;;;;;;48.03;30.23;;;9.60;88.40;;;;;;5030384;28;20082;-73
2021/12/14 10:19:38;;;;;;;46.78;29.75;;;9.60;88.60;;;;;;5008776;28;20033;-70
2021/12/14 10:22:09;;;;;;;40.78;28.70;;;9.60;88.50;;;;;;5010774;28;20014;-72
2021/12/14 10:24:35;;;;;;;48.78;31.30;;;9.60;88.50;;;;;;5010642;28;20034;-70
2021/12/14 10:27:07;;;;;;;42.63;28.88;;;9.60;88.50;;;;;;5011422;28;20022;-74
2021/12/14 10:29:33;;;;;;;41.30;29.17;;;9.70;88.60;;;;;;5042758;28;20054;-70
2021/12/14 10:32:05;;;;;;;39.92;28.73;;;9.70;88.60;;;;;;5013417;28;20026;-71
2021/12/14 10:34:40;;;;;;;45.28;29.15;;;9.70;88.60;;;;;;5006309;28;20030;-72
2021/12/14 10:37:16;;;;;;;43.03;28.55;;;9.70;88.60;;;;;;5008838;28;20045;-73
2021/12/14 10:43:04;;;;;;;45.05;30.13;;;9.70;88.70;;;;;;5015053;28;20045;-73
2021/12/14 10:45:26;;;;;;;45.75;29.13;;;9.70;88.50;;;;;;5014285;28;20023;-73
2021/12/14 10:47:53;;;;;;;39.83;27.92;;;9.80;88.60;;;;;;5014565;28;20014;-69
2021/12/14 10:50:23;;;;;;;43.50;28.70;;;9.80;88.60;;;;;;5014655;28;20077;-73
2021/12/14 10:52:49;;;;;;;41.85;28.17;;;9.80;88.30;;;;;;5011058;28;20026;-75
2021/12/14 10:55:45;;;;;;;41.05;28.23;;;9.90;88.50;;;;;;5020068;28;20056;-73
2021/12/14 10:58:13;;;;;;;44.72;27.90;;;9.80;88.40;;;;;;5012776;28;20018;-76
2021/12/14 11:00:54;;;;;;;40.03;28.55;;;9.90;88.40;;;;;;5023899;28;20026;-69
2021/12/14 11:03:27;;;;;;;38.58;27.52;;;9.90;88.40;;;;;;5007850;28;20054;-74
2021/12/14 11:05:57;;;;;;;42.58;28.02;;;10.00;88.50;;;;;;5017342;28;20037;-74
2021/12/14 11:11:21;;;;;;;40.97;28.92;;;10.00;88.00;;;;;;5010896;28;20024;-73
2021/12/14 11:13:53;;;;;;;42.45;28.55;;;10.10;88.10;;;;;;5013207;28;20116;-74
2021/12/14 11:18:08;;;;;;;38.30;27.65;;;10.10;88.20;;;;;;5013415;28;20057;-73
2021/12/14 11:19:41;;;;;;;37.63;27.50;;;10.10;88.00;;;;;;5008144;28;20018;-73
2021/12/14 11:22:15;;;;;;;37.92;26.58;;;10.10;88.10;;;;;;5010154;28;20030;-73
2021/12/14 11:24:43;;;;;;;37.30;26.73;;;10.20;88.00;;;;;;5010941;28;20032;-74
2021/12/14 11:27:18;;;;;;;39.05;26.88;;;10.20;88.00;;;;;;5010309;28;20026;-73
2021/12/14 11:29:45;;;;;;;37.67;27.65;;;10.20;87.90;;;;;;5014860;28;20022;-74
2021/12/14 11:32:20;;;;;;;38.55;26.35;;;10.20;87.80;;;;;;5013852;28;20025;-74
2021/12/14 11:34:46;;;;;;;38.55;26.70;;;10.30;87.80;;;;;;5009670;28;20050;-74
2021/12/14 11:37:16;;;;;;;38.45;27.73;;;10.30;87.80;;;;;;5015921;28;20094;-72
2021/12/14 11:39:47;;;;;;;36.70;26.65;;;10.40;87.80;;;;;;5012219;28;20220;-74
2021/12/14 11:42:26;;;;;;;40.03;27.48;;;10.40;87.70;;;;;;5005239;28;20011;-74
2021/12/14 11:44:56;;;;;;;37.53;26.77;;;10.40;87.50;;;;;;5009679;28;21345;-73
2021/12/14 11:50:01;;;;;;;36.28;26.50;;;10.50;87.60;;;;;;5012480;28;20050;-74
2021/12/14 11:52:51;;;;;;;33.45;25.10;;;10.50;87.50;;;;;;5004094;28;20022;-77
2021/12/14 11:55:24;;;;;;;36.20;25.42;;;10.50;87.70;;;;;;5013800;28;20054;-73
2021/12/14 11:58:05;;;;;;;35.08;25.13;;;10.60;87.60;;;;;;5018595;28;20082;-74
2021/12/14 12:00:34;;;;;;;33.95;24.45;;;10.60;87.60;;;;;;5012273;28;20022;-75
2021/12/14 12:03:32;;;;;;;35.67;25.38;;;10.70;87.50;;;;;;5017253;28;20073;-75
2021/12/14 12:06:46;;;;;;;36.72;25.80;;;10.80;87.20;;;;;;5007145;28;20022;-75
2021/12/14 12:09:41;;;;;;;34.63;23.92;;;10.70;87.30;;;;;;4990683;28;20031;-71
2021/12/14 12:12:32;;;;;;;35.13;25.38;;;10.80;87.10;;;;;;5010176;28;20029;-74
2021/12/14 12:15:11;;;;;;;30.85;23.80;;;10.80;87.30;;;;;;5013368;28;20043;-74
2021/12/14 12:17:59;;;;;;;34.53;24.27;;;10.90;87.30;;;;;;5001846;28;20042;-70
2021/12/14 12:20:31;;;;;;;35.38;24.73;;;10.90;87.30;;;;;;5019091;28;20038;-74
2021/12/14 12:23:13;;;;;;;32.80;23.15;;;11.00;87.10;;;;;;5022909;28;20247;-74
2021/12/14 12:25:44;;;;;;;35.08;24.63;;;11.00;87.20;;;;;;5009328;28;20129;-75
2021/12/14 12:28:15;;;;;;;31.92;24.40;;;11.00;87.10;;;;;;5011516;28;20031;-74
2021/12/14 12:31:04;;;;;;;34.78;23.30;;;11.00;87.10;;;;;;5016516;28;20018;-74
2021/12/14 12:33:40;;;;;;;32.05;23.40;;;11.10;87.00;;;;;;5014161;28;20015;-74
2021/12/14 12:36:18;;;;;;;35.28;23.95;;;11.00;86.70;;;;;;5015546;28;20102;-75
2021/12/14 12:39:05;;;;;;;31.25;24.00;;;11.00;86.80;;;;;;5008243;28;20056;-74
2021/12/14 12:41:47;;;;;;;32.42;23.48;;;11.00;87.00;;;;;;5012583;28;20018;-69
2021/12/14 12:44:26;;;;;;;28.30;23.23;;;11.00;87.10;;;;;;5027694;28;20092;-71
2021/12/14 12:46:57;;;;;;;29.63;21.67;;;11.00;87.30;;;;;;5012476;28;20023;-74
2021/12/14 12:49:32;;;;;;;33.45;24.52;;;11.00;87.20;;;;;;5009145;28;20040;-71
2021/12/14 12:52:20;;;;;;;32.08;23.80;;;11.10;87.10;;;;;;5009133;28;20098;-74
2021/12/14 12:54:57;;;;;;;29.70;22.40;;;11.10;87.00;;;;;;5018850;28;20033;-72
2021/12/14 12:57:52;;;;;;;32.65;23.85;;;11.10;87.00;;;;;;5019865;28;20022;-73
2021/12/14 13:00:25;;;;;;;34.45;24.23;;;11.10;87.20;;;;;;5008202;28;20033;-70
2021/12/14 13:03:13;;;;;;;32.80;22.48;;;11.10;87.00;;;;;;5023245;28;20045;-73
2021/12/14 13:05:49;;;;;;;32.15;22.55;;;11.10;87.30;;;;;;5017084;28;20037;-73
2021/12/14 13:08:19;;;;;;;31.45;22.40;;;11.10;87.10;;;;;;5028351;28;20085;-73
2021/12/14 13:11:01;;;;;;;33.15;23.85;;;11.10;86.90;;;;;;5012869;28;20094;-73
2021/12/14 13:13:35;;;;;;;29.60;23.33;;;11.10;86.90;;;;;;5007859;28;20204;-75
2021/12/14 13:16:23;;;;;;;32.17;23.25;;;11.10;86.90;;;;;;5018633;28;20049;-74
2021/12/14 13:18:56;;;;;;;35.05;24.85;;;11.20;87.10;;;;;;5016476;28;20050;-74
2021/12/14 13:21:27;;;;;;;37.85;25.50;;;11.20;87.00;;;;;;5001726;28;20023;-74
2021/12/14 13:24:14;;;;;;;32.92;23.38;;;11.20;87.00;;;;;;5010257;28;20038;-75
2021/12/14 13:26:59;;;;;;;30.02;24.33;;;11.10;87.10;;;;;;5010267;28;20026;-72
2021/12/14 13:29:44;;;;;;;30.20;23.50;;;11.20;87.20;;;;;;5014633;28;20026;-73
2021/12/14 13:32:36;;;;;;;30.40;23.63;;;11.20;87.30;;;;;;5008425;28;20033;-69
2021/12/14 13:35:13;;;;;;;30.80;22.73;;;11.20;87.30;;;;;;5007499;28;20050;-75
2021/12/14 13:37:51;;;;;;;31.70;23.77;;;11.10;87.20;;;;;;5008947;28;20032;-74